sensor_id;sensor_type;location;lat;lon;timestamp;P1;durP1;ratioP1;P2;durP2;ratioP2
70049;SDS011;57391;51.306;22.680;2023-07-31T00:01:04;12.70;;;8.40;;
70049;SDS011;57391;51.306;22.680;2023-07-31T00:03:31;11.70;;;7.20;;
70049;SDS011;57391;51.306;22.680;2023-07-31T00:05:58;11.30;;;7.40;;
70049;SDS011;57391;51.306;22.680;2023-07-31T00:08:25;11.60;;;8.10;;
70049;SDS011;57391;51.306;22.680;2023-07-31T00:10:52;11.50;;;7.80;;
70049;SDS011;57391;51.306;22.680;2023-07-31T00:13:19;9.60;;;6.70;;
70049;SDS011;57391;51.306;22.680;2023-07-31T00:15:46;11.70;;;6.70;;
70049;SDS011;57391;51.306;22.680;2023-07-31T00:18:13;8.80;;;6.40;;
70049;SDS011;57391;51.306;22.680;2023-07-31T00:20:40;8.10;;;6.20;;
70049;SDS011;57391;51.306;22.680;2023-07-31T00:23:07;8.80;;;6.10;;
70049;SDS011;57391;51.306;22.680;2023-07-31T00:25:34;9.50;;;5.20;;
70049;SDS011;57391;51.306;22.680;2023-07-31T00:28:01;9.30;;;5.50;;
70049;SDS011;57391;51.306;22.680;2023-07-31T00:30:27;12.20;;;6.20;;
70049;SDS011;57391;51.306;22.680;2023-07-31T00:32:54;8.00;;;6.10;;
70049;SDS011;57391;51.306;22.680;2023-07-31T00:35:21;7.70;;;5.10;;
70049;SDS011;57391;51.306;22.680;2023-07-31T00:37:48;9.20;;;5.20;;
70049;SDS011;57391;51.306;22.680;2023-07-31T00:40:15;6.70;;;4.70;;
70049;SDS011;57391;51.306;22.680;2023-07-31T00:42:42;8.50;;;5.20;;
70049;SDS011;57391;51.306;22.680;2023-07-31T00:45:09;6.70;;;4.60;;
70049;SDS011;57391;51.306;22.680;2023-07-31T00:47:36;8.00;;;5.10;;
70049;SDS011;57391;51.306;22.680;2023-07-31T00:50:03;7.80;;;5.00;;
70049;SDS011;57391;51.306;22.680;2023-07-31T00:52:32;8.60;;;5.00;;
70049;SDS011;57391;51.306;22.680;2023-07-31T00:54:59;7.10;;;4.90;;
70049;SDS011;57391;51.306;22.680;2023-07-31T00:57:26;7.00;;;4.70;;
70049;SDS011;57391;51.306;22.680;2023-07-31T00:59:53;10.90;;;5.50;;
70049;SDS011;57391;51.306;22.680;2023-07-31T01:02:20;7.00;;;5.10;;
70049;SDS011;57391;51.306;22.680;2023-07-31T01:04:47;7.70;;;4.70;;
70049;SDS011;57391;51.306;22.680;2023-07-31T01:07:22;8.30;;;4.80;;
70049;SDS011;57391;51.306;22.680;2023-07-31T01:10:07;6.60;;;4.70;;
70049;SDS011;57391;51.306;22.680;2023-07-31T01:12:38;8.80;;;4.50;;
70049;SDS011;57391;51.306;22.680;2023-07-31T01:15:08;6.90;;;4.20;;
70049;SDS011;57391;51.306;22.680;2023-07-31T01:17:38;8.00;;;4.70;;
70049;SDS011;57391;51.306;22.680;2023-07-31T01:20:12;7.10;;;4.20;;
70049;SDS011;57391;51.306;22.680;2023-07-31T01:22:49;8.30;;;4.10;;
70049;SDS011;57391;51.306;22.680;2023-07-31T01:25:48;6.50;;;4.20;;
70049;SDS011;57391;51.306;22.680;2023-07-31T01:31:23;6.50;;;4.10;;
70049;SDS011;57391;51.306;22.680;2023-07-31T01:33:58;5.80;;;4.10;;
70049;SDS011;57391;51.306;22.680;2023-07-31T01:36:28;7.90;;;4.30;;
70049;SDS011;57391;51.306;22.680;2023-07-31T01:39:00;6.30;;;4.10;;
70049;SDS011;57391;51.306;22.680;2023-07-31T01:41:28;6.10;;;4.00;;
70049;SDS011;57391;51.306;22.680;2023-07-31T01:43:54;6.40;;;4.30;;
70049;SDS011;57391;51.306;22.680;2023-07-31T01:46:21;7.30;;;4.80;;
70049;SDS011;57391;51.306;22.680;2023-07-31T01:48:48;7.80;;;4.80;;
70049;SDS011;57391;51.306;22.680;2023-07-31T01:51:15;7.50;;;4.50;;
70049;SDS011;57391;51.306;22.680;2023-07-31T01:53:42;6.30;;;4.50;;
70049;SDS011;57391;51.306;22.680;2023-07-31T01:56:09;6.70;;;4.00;;
70049;SDS011;57391;51.306;22.680;2023-07-31T01:58:36;6.00;;;4.20;;
70049;SDS011;57391;51.306;22.680;2023-07-31T02:01:03;5.60;;;3.70;;
70049;SDS011;57391;51.306;22.680;2023-07-31T02:03:30;6.00;;;3.90;;
70049;SDS011;57391;51.306;22.680;2023-07-31T02:05:56;6.20;;;3.70;;
70049;SDS011;57391;51.306;22.680;2023-07-31T02:08:25;7.90;;;3.90;;
70049;SDS011;57391;51.306;22.680;2023-07-31T02:10:52;5.90;;;3.60;;
70049;SDS011;57391;51.306;22.680;2023-07-31T02:13:19;6.50;;;3.60;;
70049;SDS011;57391;51.306;22.680;2023-07-31T02:15:45;6.30;;;4.20;;
70049;SDS011;57391;51.306;22.680;2023-07-31T02:18:12;5.40;;;3.60;;
70049;SDS011;57391;51.306;22.680;2023-07-31T02:20:39;5.80;;;3.70;;
70049;SDS011;57391;51.306;22.680;2023-07-31T02:23:06;6.00;;;3.50;;
70049;SDS011;57391;51.306;22.680;2023-07-31T02:25:33;6.60;;;3.80;;
70049;SDS011;57391;51.306;22.680;2023-07-31T02:28:00;6.30;;;3.40;;
70049;SDS011;57391;51.306;22.680;2023-07-31T02:30:26;5.60;;;3.70;;
70049;SDS011;57391;51.306;22.680;2023-07-31T02:32:54;6.00;;;3.50;;
70049;SDS011;57391;51.306;22.680;2023-07-31T02:35:20;6.40;;;3.90;;
70049;SDS011;57391;51.306;22.680;2023-07-31T02:37:47;5.90;;;3.60;;
70049;SDS011;57391;51.306;22.680;2023-07-31T02:40:14;5.60;;;3.40;;
70049;SDS011;57391;51.306;22.680;2023-07-31T02:42:41;5.40;;;3.50;;
70049;SDS011;57391;51.306;22.680;2023-07-31T02:45:08;5.50;;;3.40;;
70049;SDS011;57391;51.306;22.680;2023-07-31T02:47:35;5.30;;;3.50;;
70049;SDS011;57391;51.306;22.680;2023-07-31T02:50:05;5.80;;;3.70;;
70049;SDS011;57391;51.306;22.680;2023-07-31T02:52:33;6.20;;;3.40;;
70049;SDS011;57391;51.306;22.680;2023-07-31T02:54:59;6.10;;;3.40;;
70049;SDS011;57391;51.306;22.680;2023-07-31T02:57:26;5.30;;;3.70;;
70049;SDS011;57391;51.306;22.680;2023-07-31T02:59:53;6.70;;;3.70;;
70049;SDS011;57391;51.306;22.680;2023-07-31T03:02:20;5.60;;;3.60;;
70049;SDS011;57391;51.306;22.680;2023-07-31T03:04:47;5.90;;;4.20;;
70049;SDS011;57391;51.306;22.680;2023-07-31T03:07:14;5.80;;;3.60;;
70049;SDS011;57391;51.306;22.680;2023-07-31T03:09:41;5.20;;;3.20;;
70049;SDS011;57391;51.306;22.680;2023-07-31T03:12:08;5.50;;;3.50;;
70049;SDS011;57391;51.306;22.680;2023-07-31T03:14:36;5.70;;;3.30;;
70049;SDS011;57391;51.306;22.680;2023-07-31T03:17:03;5.60;;;3.50;;
70049;SDS011;57391;51.306;22.680;2023-07-31T03:19:31;5.60;;;3.40;;
70049;SDS011;57391;51.306;22.680;2023-07-31T03:21:59;5.20;;;3.60;;
70049;SDS011;57391;51.306;22.680;2023-07-31T03:24:26;7.30;;;3.40;;
70049;SDS011;57391;51.306;22.680;2023-07-31T03:26:54;6.20;;;3.50;;
70049;SDS011;57391;51.306;22.680;2023-07-31T03:29:22;6.90;;;3.50;;
70049;SDS011;57391;51.306;22.680;2023-07-31T03:31:49;5.60;;;3.30;;
70049;SDS011;57391;51.306;22.680;2023-07-31T03:34:17;5.50;;;3.50;;
70049;SDS011;57391;51.306;22.680;2023-07-31T03:36:44;6.40;;;3.60;;
70049;SDS011;57391;51.306;22.680;2023-07-31T03:39:11;6.50;;;3.60;;
70049;SDS011;57391;51.306;22.680;2023-07-31T03:41:37;5.30;;;3.60;;
70049;SDS011;57391;51.306;22.680;2023-07-31T03:44:04;5.20;;;3.20;;
70049;SDS011;57391;51.306;22.680;2023-07-31T03:46:31;5.00;;;3.50;;
70049;SDS011;57391;51.306;22.680;2023-07-31T03:48:58;5.30;;;3.40;;
70049;SDS011;57391;51.306;22.680;2023-07-31T03:51:25;5.10;;;3.30;;
70049;SDS011;57391;51.306;22.680;2023-07-31T03:53:52;4.90;;;3.30;;
70049;SDS011;57391;51.306;22.680;2023-07-31T03:56:19;7.10;;;3.80;;
70049;SDS011;57391;51.306;22.680;2023-07-31T03:58:46;5.90;;;3.50;;
70049;SDS011;57391;51.306;22.680;2023-07-31T04:01:12;5.70;;;3.90;;
70049;SDS011;57391;51.306;22.680;2023-07-31T04:03:39;5.90;;;4.10;;
70049;SDS011;57391;51.306;22.680;2023-07-31T04:06:06;8.30;;;4.10;;
70049;SDS011;57391;51.306;22.680;2023-07-31T04:08:34;6.70;;;4.20;;
70049;SDS011;57391;51.306;22.680;2023-07-31T04:11:00;6.30;;;3.70;;
70049;SDS011;57391;51.306;22.680;2023-07-31T04:13:29;6.00;;;3.90;;
70049;SDS011;57391;51.306;22.680;2023-07-31T04:15:56;5.90;;;4.10;;
70049;SDS011;57391;51.306;22.680;2023-07-31T04:18:25;7.40;;;3.80;;
70049;SDS011;57391;51.306;22.680;2023-07-31T04:20:52;6.10;;;3.90;;
70049;SDS011;57391;51.306;22.680;2023-07-31T04:23:19;5.90;;;3.70;;
70049;SDS011;57391;51.306;22.680;2023-07-31T04:25:46;8.10;;;4.00;;
70049;SDS011;57391;51.306;22.680;2023-07-31T04:28:12;7.10;;;3.90;;
70049;SDS011;57391;51.306;22.680;2023-07-31T04:30:39;6.70;;;4.20;;
70049;SDS011;57391;51.306;22.680;2023-07-31T04:33:06;7.50;;;4.00;;
70049;SDS011;57391;51.306;22.680;2023-07-31T04:35:33;5.80;;;3.90;;
70049;SDS011;57391;51.306;22.680;2023-07-31T04:38:00;5.90;;;3.90;;
70049;SDS011;57391;51.306;22.680;2023-07-31T04:43:36;6.20;;;3.60;;
70049;SDS011;57391;51.306;22.680;2023-07-31T04:46:08;5.10;;;3.60;;
70049;SDS011;57391;51.306;22.680;2023-07-31T04:48:35;5.60;;;3.20;;
70049;SDS011;57391;51.306;22.680;2023-07-31T04:51:02;5.50;;;3.10;;
70049;SDS011;57391;51.306;22.680;2023-07-31T04:53:32;5.60;;;2.90;;
70049;SDS011;57391;51.306;22.680;2023-07-31T04:55:59;5.90;;;3.20;;
70049;SDS011;57391;51.306;22.680;2023-07-31T04:58:26;6.00;;;3.10;;
70049;SDS011;57391;51.306;22.680;2023-07-31T05:00:58;5.80;;;3.30;;
70049;SDS011;57391;51.306;22.680;2023-07-31T05:03:54;5.10;;;3.10;;
70049;SDS011;57391;51.306;22.680;2023-07-31T05:06:24;5.70;;;3.40;;
70049;SDS011;57391;51.306;22.680;2023-07-31T05:08:58;5.10;;;3.10;;
70049;SDS011;57391;51.306;22.680;2023-07-31T05:21:23;5.50;;;3.20;;
70049;SDS011;57391;51.306;22.680;2023-07-31T05:23:55;6.30;;;3.20;;
70049;SDS011;57391;51.306;22.680;2023-07-31T05:26:25;6.00;;;3.20;;
70049;SDS011;57391;51.306;22.680;2023-07-31T05:28:56;5.90;;;3.40;;
70049;SDS011;57391;51.306;22.680;2023-07-31T05:31:28;5.80;;;3.40;;
70049;SDS011;57391;51.306;22.680;2023-07-31T05:38:53;5.60;;;3.10;;
70049;SDS011;57391;51.306;22.680;2023-07-31T05:41:24;5.40;;;3.10;;
70049;SDS011;57391;51.306;22.680;2023-07-31T05:43:55;7.00;;;3.30;;
70049;SDS011;57391;51.306;22.680;2023-07-31T05:46:26;6.40;;;3.50;;
70049;SDS011;57391;51.306;22.680;2023-07-31T05:48:56;5.90;;;3.40;;
70049;SDS011;57391;51.306;22.680;2023-07-31T05:51:23;4.90;;;3.40;;
70049;SDS011;57391;51.306;22.680;2023-07-31T05:53:50;7.20;;;3.50;;
70049;SDS011;57391;51.306;22.680;2023-07-31T05:56:17;5.50;;;3.20;;
70049;SDS011;57391;51.306;22.680;2023-07-31T05:58:47;6.40;;;3.60;;
70049;SDS011;57391;51.306;22.680;2023-07-31T06:01:19;4.90;;;3.40;;
70049;SDS011;57391;51.306;22.680;2023-07-31T06:03:48;6.10;;;3.30;;
70049;SDS011;57391;51.306;22.680;2023-07-31T06:06:18;5.50;;;3.10;;
70049;SDS011;57391;51.306;22.680;2023-07-31T06:08:45;6.50;;;3.30;;
70049;SDS011;57391;51.306;22.680;2023-07-31T06:11:12;6.70;;;3.20;;
70049;SDS011;57391;51.306;22.680;2023-07-31T06:13:39;6.30;;;3.10;;
70049;SDS011;57391;51.306;22.680;2023-07-31T06:16:06;7.40;;;3.80;;
70049;SDS011;57391;51.306;22.680;2023-07-31T06:18:32;5.80;;;3.80;;
70049;SDS011;57391;51.306;22.680;2023-07-31T06:21:00;6.60;;;3.60;;
70049;SDS011;57391;51.306;22.680;2023-07-31T06:23:27;5.50;;;3.00;;
70049;SDS011;57391;51.306;22.680;2023-07-31T06:25:54;5.30;;;3.30;;
70049;SDS011;57391;51.306;22.680;2023-07-31T06:28:21;8.40;;;3.70;;
70049;SDS011;57391;51.306;22.680;2023-07-31T06:30:48;5.00;;;3.40;;
70049;SDS011;57391;51.306;22.680;2023-07-31T06:33:21;7.40;;;3.60;;
70049;SDS011;57391;51.306;22.680;2023-07-31T06:35:50;5.80;;;3.50;;
70049;SDS011;57391;51.306;22.680;2023-07-31T06:38:25;5.50;;;3.40;;
70049;SDS011;57391;51.306;22.680;2023-07-31T06:47:19;6.10;;;3.60;;
70049;SDS011;57391;51.306;22.680;2023-07-31T06:49:46;6.50;;;3.70;;
70049;SDS011;57391;51.306;22.680;2023-07-31T06:52:13;7.90;;;3.80;;
70049;SDS011;57391;51.306;22.680;2023-07-31T06:54:39;6.90;;;3.50;;
70049;SDS011;57391;51.306;22.680;2023-07-31T06:57:06;6.60;;;4.00;;
70049;SDS011;57391;51.306;22.680;2023-07-31T06:59:34;6.40;;;3.80;;
70049;SDS011;57391;51.306;22.680;2023-07-31T07:02:01;7.20;;;3.70;;
70049;SDS011;57391;51.306;22.680;2023-07-31T07:04:28;7.20;;;3.80;;
70049;SDS011;57391;51.306;22.680;2023-07-31T07:06:54;6.90;;;3.70;;
70049;SDS011;57391;51.306;22.680;2023-07-31T07:09:21;5.80;;;3.50;;
70049;SDS011;57391;51.306;22.680;2023-07-31T07:11:48;5.30;;;3.30;;
70049;SDS011;57391;51.306;22.680;2023-07-31T07:14:15;5.50;;;3.30;;
70049;SDS011;57391;51.306;22.680;2023-07-31T07:16:42;5.10;;;3.00;;
70049;SDS011;57391;51.306;22.680;2023-07-31T07:19:09;4.70;;;3.10;;
70049;SDS011;57391;51.306;22.680;2023-07-31T07:21:36;5.90;;;3.10;;
70049;SDS011;57391;51.306;22.680;2023-07-31T07:24:03;5.50;;;2.90;;
70049;SDS011;57391;51.306;22.680;2023-07-31T07:26:30;5.10;;;2.80;;
70049;SDS011;57391;51.306;22.680;2023-07-31T07:28:57;5.40;;;3.10;;
70049;SDS011;57391;51.306;22.680;2023-07-31T07:31:24;6.70;;;3.30;;
70049;SDS011;57391;51.306;22.680;2023-07-31T07:33:51;7.50;;;3.00;;
70049;SDS011;57391;51.306;22.680;2023-07-31T07:36:18;5.90;;;3.20;;
70049;SDS011;57391;51.306;22.680;2023-07-31T07:38:45;5.30;;;2.90;;
70049;SDS011;57391;51.306;22.680;2023-07-31T07:41:12;6.60;;;3.50;;
70049;SDS011;57391;51.306;22.680;2023-07-31T07:43:39;5.30;;;3.30;;
70049;SDS011;57391;51.306;22.680;2023-07-31T07:46:06;5.30;;;3.40;;
70049;SDS011;57391;51.306;22.680;2023-07-31T07:48:32;6.10;;;3.70;;
70049;SDS011;57391;51.306;22.680;2023-07-31T07:50:59;4.50;;;2.90;;
70049;SDS011;57391;51.306;22.680;2023-07-31T07:53:26;5.60;;;3.50;;
70049;SDS011;57391;51.306;22.680;2023-07-31T07:55:53;6.80;;;3.50;;
70049;SDS011;57391;51.306;22.680;2023-07-31T07:58:20;5.10;;;3.50;;
70049;SDS011;57391;51.306;22.680;2023-07-31T08:00:51;7.10;;;3.80;;
70049;SDS011;57391;51.306;22.680;2023-07-31T08:03:18;6.20;;;3.40;;
70049;SDS011;57391;51.306;22.680;2023-07-31T08:05:45;5.90;;;3.30;;
70049;SDS011;57391;51.306;22.680;2023-07-31T08:08:15;6.40;;;3.40;;
70049;SDS011;57391;51.306;22.680;2023-07-31T08:10:45;4.60;;;3.20;;
70049;SDS011;57391;51.306;22.680;2023-07-31T08:13:12;6.30;;;3.80;;
70049;SDS011;57391;51.306;22.680;2023-07-31T08:15:41;9.90;;;3.30;;
70049;SDS011;57391;51.306;22.680;2023-07-31T08:18:09;5.50;;;3.10;;
70049;SDS011;57391;51.306;22.680;2023-07-31T08:20:38;5.70;;;3.20;;
70049;SDS011;57391;51.306;22.680;2023-07-31T08:23:04;5.90;;;3.40;;
70049;SDS011;57391;51.306;22.680;2023-07-31T08:25:35;6.30;;;2.80;;
70049;SDS011;57391;51.306;22.680;2023-07-31T08:28:05;6.30;;;3.10;;
70049;SDS011;57391;51.306;22.680;2023-07-31T08:30:33;6.50;;;3.20;;
70049;SDS011;57391;51.306;22.680;2023-07-31T08:33:00;7.70;;;3.00;;
70049;SDS011;57391;51.306;22.680;2023-07-31T08:35:27;5.10;;;3.10;;
70049;SDS011;57391;51.306;22.680;2023-07-31T08:37:56;6.10;;;3.10;;
70049;SDS011;57391;51.306;22.680;2023-07-31T08:40:23;6.40;;;3.60;;
70049;SDS011;57391;51.306;22.680;2023-07-31T08:42:53;5.10;;;2.80;;
70049;SDS011;57391;51.306;22.680;2023-07-31T08:45:23;5.00;;;3.10;;
70049;SDS011;57391;51.306;22.680;2023-07-31T08:47:51;5.70;;;2.80;;
70049;SDS011;57391;51.306;22.680;2023-07-31T08:50:20;5.50;;;2.90;;
70049;SDS011;57391;51.306;22.680;2023-07-31T08:52:49;4.40;;;2.60;;
70049;SDS011;57391;51.306;22.680;2023-07-31T08:55:17;6.00;;;3.30;;
70049;SDS011;57391;51.306;22.680;2023-07-31T08:57:51;5.70;;;3.10;;
70049;SDS011;57391;51.306;22.680;2023-07-31T09:00:23;5.10;;;2.90;;
70049;SDS011;57391;51.306;22.680;2023-07-31T09:02:57;5.30;;;2.50;;
70049;SDS011;57391;51.306;22.680;2023-07-31T09:05:31;4.40;;;2.70;;
70049;SDS011;57391;51.306;22.680;2023-07-31T09:07:58;5.80;;;2.90;;
70049;SDS011;57391;51.306;22.680;2023-07-31T09:10:28;6.70;;;3.70;;
70049;SDS011;57391;51.306;22.680;2023-07-31T09:12:55;5.30;;;3.60;;
70049;SDS011;57391;51.306;22.680;2023-07-31T09:15:27;7.30;;;4.30;;
70049;SDS011;57391;51.306;22.680;2023-07-31T09:18:11;6.60;;;3.60;;
70049;SDS011;57391;51.306;22.680;2023-07-31T09:20:38;7.00;;;3.80;;
70049;SDS011;57391;51.306;22.680;2023-07-31T09:23:10;6.90;;;4.80;;
70049;SDS011;57391;51.306;22.680;2023-07-31T09:25:43;7.70;;;3.30;;
70049;SDS011;57391;51.306;22.680;2023-07-31T09:28:11;6.20;;;3.10;;
70049;SDS011;57391;51.306;22.680;2023-07-31T09:30:47;4.50;;;2.60;;
70049;SDS011;57391;51.306;22.680;2023-07-31T09:44:54;5.00;;;2.50;;
70049;SDS011;57391;51.306;22.680;2023-07-31T09:47:32;4.90;;;2.50;;
70049;SDS011;57391;51.306;22.680;2023-07-31T09:49:59;5.30;;;2.50;;
70049;SDS011;57391;51.306;22.680;2023-07-31T09:52:26;4.50;;;2.60;;
70049;SDS011;57391;51.306;22.680;2023-07-31T09:54:53;4.70;;;2.60;;
70049;SDS011;57391;51.306;22.680;2023-07-31T09:57:49;5.10;;;2.20;;
70049;SDS011;57391;51.306;22.680;2023-07-31T10:00:18;6.20;;;2.40;;
70049;SDS011;57391;51.306;22.680;2023-07-31T10:11:30;4.80;;;2.40;;
70049;SDS011;57391;51.306;22.680;2023-07-31T10:14:19;5.40;;;2.30;;
70049;SDS011;57391;51.306;22.680;2023-07-31T10:17:51;5.10;;;2.50;;
70049;SDS011;57391;51.306;22.680;2023-07-31T10:20:51;5.70;;;2.20;;
70049;SDS011;57391;51.306;22.680;2023-07-31T10:24:07;4.20;;;2.00;;
70049;SDS011;57391;51.306;22.680;2023-07-31T10:26:37;6.30;;;2.30;;
70049;SDS011;57391;51.306;22.680;2023-07-31T10:29:09;4.20;;;2.20;;
70049;SDS011;57391;51.306;22.680;2023-07-31T10:31:56;3.10;;;2.00;;
70049;SDS011;57391;51.306;22.680;2023-07-31T10:34:25;4.50;;;2.30;;
70049;SDS011;57391;51.306;22.680;2023-07-31T10:37:28;4.00;;;2.20;;
70049;SDS011;57391;51.306;22.680;2023-07-31T10:40:17;3.20;;;1.80;;
70049;SDS011;57391;51.306;22.680;2023-07-31T10:42:51;3.50;;;1.80;;
70049;SDS011;57391;51.306;22.680;2023-07-31T10:45:39;2.80;;;1.70;;
70049;SDS011;57391;51.306;22.680;2023-07-31T10:48:12;3.10;;;1.60;;
70049;SDS011;57391;51.306;22.680;2023-07-31T10:50:48;3.90;;;1.90;;
70049;SDS011;57391;51.306;22.680;2023-07-31T10:56:02;4.20;;;2.00;;
70049;SDS011;57391;51.306;22.680;2023-07-31T10:58:31;5.20;;;2.10;;
70049;SDS011;57391;51.306;22.680;2023-07-31T11:01:01;4.40;;;2.20;;
70049;SDS011;57391;51.306;22.680;2023-07-31T11:03:42;2.90;;;2.10;;
70049;SDS011;57391;51.306;22.680;2023-07-31T11:06:09;4.50;;;2.40;;
70049;SDS011;57391;51.306;22.680;2023-07-31T11:08:42;3.80;;;1.90;;
70049;SDS011;57391;51.306;22.680;2023-07-31T11:11:15;5.10;;;2.10;;
70049;SDS011;57391;51.306;22.680;2023-07-31T11:13:48;4.00;;;2.10;;
70049;SDS011;57391;51.306;22.680;2023-07-31T11:16:18;3.60;;;2.10;;
70049;SDS011;57391;51.306;22.680;2023-07-31T11:18:48;3.40;;;2.20;;
70049;SDS011;57391;51.306;22.680;2023-07-31T11:21:18;4.60;;;2.10;;
70049;SDS011;57391;51.306;22.680;2023-07-31T11:23:47;5.10;;;2.00;;
70049;SDS011;57391;51.306;22.680;2023-07-31T11:26:16;4.20;;;2.20;;
70049;SDS011;57391;51.306;22.680;2023-07-31T11:28:46;4.40;;;2.10;;
70049;SDS011;57391;51.306;22.680;2023-07-31T11:31:14;3.20;;;2.10;;
70049;SDS011;57391;51.306;22.680;2023-07-31T11:33:42;4.20;;;2.10;;
70049;SDS011;57391;51.306;22.680;2023-07-31T11:36:20;3.90;;;1.90;;
70049;SDS011;57391;51.306;22.680;2023-07-31T11:38:47;4.90;;;2.30;;
70049;SDS011;57391;51.306;22.680;2023-07-31T11:41:15;8.10;;;5.10;;
70049;SDS011;57391;51.306;22.680;2023-07-31T11:43:43;7.10;;;3.60;;
70049;SDS011;57391;51.306;22.680;2023-07-31T11:46:10;7.00;;;2.60;;
70049;SDS011;57391;51.306;22.680;2023-07-31T11:48:37;4.70;;;2.60;;
70049;SDS011;57391;51.306;22.680;2023-07-31T11:51:10;4.60;;;2.40;;
70049;SDS011;57391;51.306;22.680;2023-07-31T11:53:51;5.70;;;2.70;;
70049;SDS011;57391;51.306;22.680;2023-07-31T11:56:24;5.80;;;2.30;;
70049;SDS011;57391;51.306;22.680;2023-07-31T11:58:59;4.90;;;2.30;;
70049;SDS011;57391;51.306;22.680;2023-07-31T12:03:39;3.60;;;2.20;;
70049;SDS011;57391;51.306;22.680;2023-07-31T12:06:12;4.90;;;2.30;;
70049;SDS011;57391;51.306;22.680;2023-07-31T12:08:39;5.00;;;2.40;;
70049;SDS011;57391;51.306;22.680;2023-07-31T12:11:08;4.40;;;2.20;;
70049;SDS011;57391;51.306;22.680;2023-07-31T12:13:43;4.30;;;2.20;;
70049;SDS011;57391;51.306;22.680;2023-07-31T12:16:10;5.90;;;2.70;;
70049;SDS011;57391;51.306;22.680;2023-07-31T12:18:50;4.70;;;2.40;;
70049;SDS011;57391;51.306;22.680;2023-07-31T12:21:17;3.80;;;2.40;;
70049;SDS011;57391;51.306;22.680;2023-07-31T12:23:51;4.70;;;2.40;;
70049;SDS011;57391;51.306;22.680;2023-07-31T12:26:21;4.80;;;2.60;;
70049;SDS011;57391;51.306;22.680;2023-07-31T12:29:15;4.20;;;2.40;;
70049;SDS011;57391;51.306;22.680;2023-07-31T12:31:51;4.70;;;2.70;;
70049;SDS011;57391;51.306;22.680;2023-07-31T12:34:45;5.60;;;2.40;;
70049;SDS011;57391;51.306;22.680;2023-07-31T12:37:21;5.80;;;2.70;;
70049;SDS011;57391;51.306;22.680;2023-07-31T12:39:52;4.10;;;2.40;;
70049;SDS011;57391;51.306;22.680;2023-07-31T12:43:10;5.10;;;2.50;;
70049;SDS011;57391;51.306;22.680;2023-07-31T12:45:44;4.60;;;2.60;;
70049;SDS011;57391;51.306;22.680;2023-07-31T12:48:23;5.20;;;2.40;;
70049;SDS011;57391;51.306;22.680;2023-07-31T12:50:54;5.60;;;2.40;;
70049;SDS011;57391;51.306;22.680;2023-07-31T12:53:21;5.60;;;2.60;;
70049;SDS011;57391;51.306;22.680;2023-07-31T12:55:48;5.20;;;2.60;;
70049;SDS011;57391;51.306;22.680;2023-07-31T12:58:28;4.00;;;2.40;;
70049;SDS011;57391;51.306;22.680;2023-07-31T13:00:55;4.00;;;2.20;;
70049;SDS011;57391;51.306;22.680;2023-07-31T13:03:22;4.00;;;2.30;;
70049;SDS011;57391;51.306;22.680;2023-07-31T13:05:50;3.40;;;2.10;;
70049;SDS011;57391;51.306;22.680;2023-07-31T13:08:17;3.50;;;2.00;;
70049;SDS011;57391;51.306;22.680;2023-07-31T13:10:44;8.80;;;2.50;;
70049;SDS011;57391;51.306;22.680;2023-07-31T13:13:14;3.10;;;2.10;;
70049;SDS011;57391;51.306;22.680;2023-07-31T13:15:44;6.30;;;2.30;;
70049;SDS011;57391;51.306;22.680;2023-07-31T13:18:12;7.20;;;2.10;;
70049;SDS011;57391;51.306;22.680;2023-07-31T13:20:39;4.40;;;2.20;;
70049;SDS011;57391;51.306;22.680;2023-07-31T13:23:05;3.30;;;1.90;;
70049;SDS011;57391;51.306;22.680;2023-07-31T13:25:37;4.40;;;1.80;;
70049;SDS011;57391;51.306;22.680;2023-07-31T13:28:05;3.40;;;2.10;;
70049;SDS011;57391;51.306;22.680;2023-07-31T13:30:35;3.80;;;2.00;;
70049;SDS011;57391;51.306;22.680;2023-07-31T13:33:07;4.30;;;2.10;;
70049;SDS011;57391;51.306;22.680;2023-07-31T13:35:34;4.30;;;2.30;;
70049;SDS011;57391;51.306;22.680;2023-07-31T13:38:34;4.20;;;1.90;;
70049;SDS011;57391;51.306;22.680;2023-07-31T13:41:01;3.40;;;2.10;;
70049;SDS011;57391;51.306;22.680;2023-07-31T13:43:28;3.20;;;2.00;;
70049;SDS011;57391;51.306;22.680;2023-07-31T13:45:55;3.80;;;2.00;;
70049;SDS011;57391;51.306;22.680;2023-07-31T13:48:22;7.70;;;2.50;;
70049;SDS011;57391;51.306;22.680;2023-07-31T13:50:49;5.30;;;2.40;;
70049;SDS011;57391;51.306;22.680;2023-07-31T13:53:16;6.80;;;2.10;;
70049;SDS011;57391;51.306;22.680;2023-07-31T13:55:43;7.90;;;2.60;;
70049;SDS011;57391;51.306;22.680;2023-07-31T13:58:12;6.30;;;2.20;;
70049;SDS011;57391;51.306;22.680;2023-07-31T14:00:42;9.40;;;3.10;;
70049;SDS011;57391;51.306;22.680;2023-07-31T14:03:09;8.00;;;2.30;;
70049;SDS011;57391;51.306;22.680;2023-07-31T14:05:37;4.30;;;2.00;;
70049;SDS011;57391;51.306;22.680;2023-07-31T14:08:04;4.80;;;2.00;;
70049;SDS011;57391;51.306;22.680;2023-07-31T14:10:31;4.20;;;1.90;;
70049;SDS011;57391;51.306;22.680;2023-07-31T14:13:02;5.70;;;2.10;;
70049;SDS011;57391;51.306;22.680;2023-07-31T14:17:28;4.00;;;1.90;;
70049;SDS011;57391;51.306;22.680;2023-07-31T14:19:55;6.20;;;2.30;;
70049;SDS011;57391;51.306;22.680;2023-07-31T14:22:31;7.20;;;2.40;;
70049;SDS011;57391;51.306;22.680;2023-07-31T14:25:00;5.30;;;2.40;;
70049;SDS011;57391;51.306;22.680;2023-07-31T14:27:28;4.60;;;2.00;;
70049;SDS011;57391;51.306;22.680;2023-07-31T14:29:55;4.10;;;1.90;;
70049;SDS011;57391;51.306;22.680;2023-07-31T14:32:22;5.20;;;2.40;;
70049;SDS011;57391;51.306;22.680;2023-07-31T14:34:52;2.90;;;1.90;;
70049;SDS011;57391;51.306;22.680;2023-07-31T14:37:19;4.50;;;2.10;;
70049;SDS011;57391;51.306;22.680;2023-07-31T14:39:45;5.40;;;1.90;;
70049;SDS011;57391;51.306;22.680;2023-07-31T14:42:12;3.60;;;1.80;;
70049;SDS011;57391;51.306;22.680;2023-07-31T14:44:39;4.00;;;2.00;;
70049;SDS011;57391;51.306;22.680;2023-07-31T14:47:06;5.30;;;2.00;;
70049;SDS011;57391;51.306;22.680;2023-07-31T14:49:33;4.00;;;1.90;;
70049;SDS011;57391;51.306;22.680;2023-07-31T14:52:00;5.70;;;1.90;;
70049;SDS011;57391;51.306;22.680;2023-07-31T14:54:27;4.00;;;2.30;;
70049;SDS011;57391;51.306;22.680;2023-07-31T14:56:54;3.90;;;2.00;;
70049;SDS011;57391;51.306;22.680;2023-07-31T14:59:21;3.70;;;1.80;;
70049;SDS011;57391;51.306;22.680;2023-07-31T15:01:48;4.70;;;2.00;;
70049;SDS011;57391;51.306;22.680;2023-07-31T15:04:15;3.20;;;1.80;;
70049;SDS011;57391;51.306;22.680;2023-07-31T15:06:42;3.30;;;1.90;;
70049;SDS011;57391;51.306;22.680;2023-07-31T15:09:08;3.70;;;2.00;;
70049;SDS011;57391;51.306;22.680;2023-07-31T15:11:35;4.00;;;2.20;;
70049;SDS011;57391;51.306;22.680;2023-07-31T15:14:02;5.70;;;2.20;;
70049;SDS011;57391;51.306;22.680;2023-07-31T15:16:29;6.30;;;2.00;;
70049;SDS011;57391;51.306;22.680;2023-07-31T15:18:57;3.60;;;1.90;;
70049;SDS011;57391;51.306;22.680;2023-07-31T15:21:24;4.50;;;2.50;;
70049;SDS011;57391;51.306;22.680;2023-07-31T15:23:51;3.50;;;2.00;;
70049;SDS011;57391;51.306;22.680;2023-07-31T15:34:11;3.80;;;1.90;;
70049;SDS011;57391;51.306;22.680;2023-07-31T15:36:40;4.40;;;2.00;;
70049;SDS011;57391;51.306;22.680;2023-07-31T15:39:07;4.80;;;2.10;;
70049;SDS011;57391;51.306;22.680;2023-07-31T15:41:40;8.30;;;2.10;;
70049;SDS011;57391;51.306;22.680;2023-07-31T15:44:08;5.80;;;1.90;;
70049;SDS011;57391;51.306;22.680;2023-07-31T15:46:35;5.70;;;2.60;;
70049;SDS011;57391;51.306;22.680;2023-07-31T15:49:02;7.30;;;2.20;;
70049;SDS011;57391;51.306;22.680;2023-07-31T15:51:29;4.00;;;2.00;;